createdAt,value
2018-12-06T00:03:11.336Z,6.50
2018-12-06T00:08:02.140Z,6.40
2018-12-06T00:12:40.999Z,6.50
2018-12-06T00:17:19.837Z,6.50
2018-12-06T00:21:58.773Z,6.50
2018-12-06T00:26:37.720Z,6.60
2018-12-06T00:31:16.440Z,6.70
2018-12-06T00:35:55.315Z,6.70
2018-12-06T00:40:33.993Z,6.80
2018-12-06T00:45:12.900Z,6.80
2018-12-06T00:49:51.709Z,6.80
2018-12-06T00:54:30.464Z,6.80
2018-12-06T00:59:09.360Z,6.90
2018-12-06T01:03:48.215Z,6.90
2018-12-06T01:08:27.324Z,7.00
2018-12-06T01:13:09.062Z,7.00
2018-12-06T01:17:47.958Z,7.00
2018-12-06T01:22:26.801Z,7.00
2018-12-06T01:27:05.492Z,7.10
2018-12-06T01:31:44.221Z,7.10
2018-12-06T01:36:23.207Z,7.10
2018-12-06T01:41:02.006Z,7.10
2018-12-06T01:45:40.788Z,7.20
2018-12-06T01:50:19.567Z,7.20
2018-12-06T01:54:58.324Z,7.20
2018-12-06T01:59:37.060Z,7.20
2018-12-06T02:04:15.932Z,7.30
2018-12-06T02:08:54.744Z,7.30
2018-12-06T02:13:33.455Z,7.30
2018-12-06T02:18:12.257Z,7.30
2018-12-06T02:22:51.068Z,7.40
2018-12-06T02:27:29.795Z,7.40
2018-12-06T02:32:08.589Z,7.50
2018-12-06T02:36:47.343Z,7.50
2018-12-06T02:41:26.288Z,7.60
2018-12-06T02:46:05.237Z,7.60
2018-12-06T02:50:45.190Z,7.60
2018-12-06T02:55:24.644Z,7.70
2018-12-06T03:00:04.065Z,7.70
2018-12-06T03:04:42.632Z,7.70
2018-12-06T03:09:21.276Z,7.70
2018-12-06T03:14:00.205Z,7.80
2018-12-06T03:18:38.844Z,7.80
2018-12-06T03:23:17.701Z,7.80
2018-12-06T03:27:56.370Z,7.80
2018-12-06T03:32:35.261Z,7.90
2018-12-06T03:37:14.140Z,7.90
2018-12-06T03:41:53.013Z,7.90
2018-12-06T03:46:31.944Z,7.90
2018-12-06T03:51:11.024Z,8.00
2018-12-06T03:55:49.738Z,8.00
2018-12-06T04:00:28.594Z,8.00
2018-12-06T04:05:07.428Z,8.10
2018-12-06T04:09:46.280Z,8.10
2018-12-06T04:14:25.321Z,8.10
2018-12-06T04:19:03.952Z,8.20
2018-12-06T04:23:42.991Z,8.20
2018-12-06T04:28:21.729Z,8.30
2018-12-06T04:33:00.381Z,8.30
2018-12-06T04:37:39.337Z,8.30
2018-12-06T04:42:18.158Z,8.40
2018-12-06T04:46:57.298Z,8.30
2018-12-06T04:51:36.111Z,8.40
2018-12-06T04:56:15.011Z,8.40
2018-12-06T05:00:53.794Z,8.40
2018-12-06T05:05:32.619Z,8.50
2018-12-06T05:10:11.660Z,8.50
2018-12-06T05:14:50.542Z,8.50
2018-12-06T05:19:29.384Z,8.60
2018-12-06T05:24:08.181Z,8.60
2018-12-06T05:28:46.825Z,8.70
2018-12-06T05:33:25.609Z,8.70
2018-12-06T05:38:04.288Z,8.80
2018-12-06T05:42:43.239Z,8.80
2018-12-06T05:47:22.136Z,8.80
2018-12-06T05:52:00.947Z,8.80
2018-12-06T05:56:39.755Z,8.80
2018-12-06T06:01:18.512Z,8.80
2018-12-06T06:05:57.211Z,8.80
2018-12-06T06:10:35.977Z,8.80
2018-12-06T06:15:14.882Z,8.80
2018-12-06T06:19:53.674Z,8.90
2018-12-06T06:24:32.587Z,9.00
2018-12-06T06:29:11.324Z,9.00
2018-12-06T06:33:50.000Z,9.00
2018-12-06T06:38:28.896Z,9.00
2018-12-06T06:43:07.568Z,9.10
2018-12-06T06:47:46.205Z,9.10
2018-12-06T06:52:25.294Z,9.10
2018-12-06T06:57:04.110Z,9.10
2018-12-06T07:01:42.824Z,9.20
2018-12-06T07:06:21.621Z,9.20
2018-12-06T07:11:00.261Z,9.20
2018-12-06T07:15:39.021Z,9.30
2018-12-06T07:20:17.852Z,9.30
2018-12-06T07:24:56.696Z,9.40
2018-12-06T07:29:35.536Z,9.40
2018-12-06T07:34:14.571Z,9.40
2018-12-06T07:38:53.500Z,9.40
2018-12-06T07:43:32.228Z,9.40
2018-12-06T07:48:11.009Z,9.40
2018-12-06T07:52:49.818Z,9.50
2018-12-06T07:57:28.941Z,9.50
2018-12-06T08:02:08.460Z,9.60
2018-12-06T08:06:47.168Z,9.70
2018-12-06T08:11:26.004Z,9.70
2018-12-06T08:16:04.967Z,9.80
2018-12-06T08:20:43.928Z,9.80
2018-12-06T08:25:22.801Z,9.80
2018-12-06T08:30:01.673Z,9.90
2018-12-06T08:34:40.372Z,10.00
2018-12-06T08:39:19.257Z,10.10
2018-12-06T08:43:58.090Z,10.10
2018-12-06T08:48:36.998Z,10.20
2018-12-06T08:53:15.884Z,10.30
2018-12-06T08:57:54.717Z,10.40
2018-12-06T09:02:33.536Z,10.60
2018-12-06T09:07:12.249Z,10.70
2018-12-06T09:11:51.061Z,10.70
2018-12-06T09:16:29.829Z,10.70
2018-12-06T09:21:08.777Z,10.70
2018-12-06T09:25:48.346Z,10.70
2018-12-06T09:30:27.634Z,10.70
2018-12-06T09:35:06.617Z,10.80
2018-12-06T09:39:53.992Z,10.80
2018-12-06T09:44:32.668Z,10.80
2018-12-06T09:49:11.298Z,10.90
2018-12-06T09:53:50.092Z,10.90
2018-12-06T09:58:28.899Z,10.90
2018-12-06T10:03:07.620Z,10.80
2018-12-06T10:07:46.476Z,10.90
2018-12-06T10:12:25.190Z,11.10
2018-12-06T10:17:03.972Z,11.50
2018-12-06T10:21:42.859Z,12.00
2018-12-06T10:26:21.736Z,12.50
2018-12-06T10:31:00.570Z,13.00
2018-12-06T10:35:40.164Z,13.40
2018-12-06T10:40:19.724Z,13.40
2018-12-06T10:44:59.896Z,13.30
2018-12-06T10:49:38.544Z,13.00
2018-12-06T10:54:17.344Z,12.80
2018-12-06T10:58:56.171Z,12.60
2018-12-06T11:03:36.776Z,12.80
2018-12-06T11:08:15.596Z,13.10
2018-12-06T11:12:54.445Z,13.20
2018-12-06T11:17:33.228Z,13.20
2018-12-06T11:22:12.032Z,13.00
2018-12-06T11:26:50.737Z,12.80
2018-12-06T11:31:29.504Z,12.70
2018-12-06T11:36:08.112Z,12.70
2018-12-06T11:40:47.009Z,12.60
2018-12-06T11:45:25.819Z,12.50
2018-12-06T11:50:05.596Z,12.60
2018-12-06T11:54:44.354Z,12.60
2018-12-06T11:59:23.112Z,12.70
2018-12-06T12:04:01.872Z,12.70
2018-12-06T12:08:40.705Z,12.60
2018-12-06T12:13:19.416Z,12.40
2018-12-06T12:17:58.200Z,12.20
2018-12-06T12:22:36.965Z,12.10
2018-12-06T12:27:15.761Z,12.00
2018-12-06T12:31:54.416Z,12.10
2018-12-06T12:36:33.232Z,12.50
2018-12-06T12:41:12.101Z,12.80
2018-12-06T12:45:50.940Z,13.10
2018-12-06T12:50:29.757Z,13.20
2018-12-06T12:55:12.132Z,13.30
2018-12-06T12:59:51.016Z,13.30
2018-12-06T13:04:29.701Z,13.30
2018-12-06T13:09:09.449Z,13.30
2018-12-06T13:13:49.180Z,13.20
2018-12-06T13:18:27.986Z,13.10
2018-12-06T13:23:06.704Z,12.90
2018-12-06T13:27:45.473Z,12.80
2018-12-06T13:32:26.546Z,12.90
2018-12-06T13:37:05.199Z,12.90
2018-12-06T13:41:44.148Z,12.90
2018-12-06T13:46:23.127Z,12.80
2018-12-06T13:51:01.872Z,12.80
2018-12-06T13:55:42.482Z,12.80
2018-12-06T14:00:22.206Z,12.80
2018-12-06T14:05:02.515Z,12.70
2018-12-06T14:09:41.253Z,12.70
2018-12-06T14:14:20.160Z,12.70
2018-12-06T14:18:59.052Z,12.70
2018-12-06T14:23:37.803Z,12.60
2018-12-06T14:28:16.563Z,12.60
2018-12-06T14:32:55.393Z,12.50
2018-12-06T14:37:34.208Z,12.50
2018-12-06T14:42:12.932Z,12.50
2018-12-06T14:46:53.674Z,12.50
2018-12-06T14:51:32.397Z,12.50
2018-12-06T14:56:11.287Z,12.50
2018-12-06T15:00:50.349Z,12.50
2018-12-06T15:05:29.110Z,12.40
2018-12-06T15:10:08.078Z,12.40
2018-12-06T15:14:46.916Z,12.30
2018-12-06T15:19:25.728Z,12.20
2018-12-06T15:24:04.497Z,12.20
2018-12-06T15:28:43.132Z,12.00
2018-12-06T15:33:22.617Z,11.90
2018-12-06T15:38:01.364Z,11.80
2018-12-06T15:42:41.070Z,11.70
2018-12-06T15:47:21.485Z,11.70
2018-12-06T15:52:00.245Z,11.60
2018-12-06T15:56:39.050Z,11.60
2018-12-06T16:01:17.918Z,11.50
2018-12-06T16:05:56.521Z,11.40
2018-12-06T16:10:36.209Z,11.30
2018-12-06T16:15:16.033Z,11.30
2018-12-06T16:19:54.912Z,11.30
2018-12-06T16:24:33.744Z,11.20
2018-12-06T16:29:12.584Z,11.20
2018-12-06T16:33:51.393Z,11.20
2018-12-06T16:38:30.804Z,11.30
2018-12-06T16:43:09.825Z,11.20
2018-12-06T16:47:48.722Z,11.20
2018-12-06T16:52:28.403Z,11.20
2018-12-06T16:57:07.538Z,11.20
2018-12-06T17:01:46.389Z,11.20
2018-12-06T17:06:25.007Z,11.20
2018-12-06T17:11:04.201Z,11.30
2018-12-06T17:15:43.008Z,11.30
2018-12-06T17:20:21.959Z,11.30
2018-12-06T17:25:00.678Z,11.40
2018-12-06T17:29:39.416Z,11.40
2018-12-06T17:34:18.231Z,11.40
2018-12-06T17:38:56.883Z,11.50
2018-12-06T17:43:35.749Z,11.50
2018-12-06T17:48:50.437Z,11.50
2018-12-06T17:53:29.155Z,11.50
2018-12-06T17:58:07.988Z,11.60
2018-12-06T18:02:46.632Z,11.60
2018-12-06T18:07:25.538Z,11.60
2018-12-06T18:12:04.412Z,11.60
2018-12-06T18:16:43.272Z,11.60
2018-12-06T18:21:22.095Z,11.60
2018-12-06T18:26:00.767Z,11.60
2018-12-06T18:30:39.572Z,11.70
2018-12-06T18:35:18.448Z,11.70
2018-12-06T18:39:57.381Z,11.70
2018-12-06T18:44:36.292Z,11.70
2018-12-06T18:49:14.971Z,11.70
2018-12-06T18:53:55.272Z,11.70
2018-12-06T18:58:34.465Z,11.70
2018-12-06T19:03:13.706Z,11.70
2018-12-06T19:07:52.626Z,11.70
2018-12-06T19:12:32.944Z,11.80
2018-12-06T19:17:12.567Z,11.70
2018-12-06T19:21:51.999Z,11.70
2018-12-06T19:26:30.920Z,11.80
2018-12-06T19:31:09.822Z,11.70
2018-12-06T19:35:49.292Z,11.80
2018-12-06T19:40:29.016Z,11.80
2018-12-06T19:45:08.578Z,11.80
2018-12-06T19:49:47.306Z,11.80
2018-12-06T19:54:26.037Z,11.80
2018-12-06T19:59:04.760Z,11.80
2018-12-06T20:03:43.556Z,11.90
2018-12-06T20:08:22.211Z,11.80
2018-12-06T20:13:02.055Z,11.90
2018-12-06T20:17:41.643Z,11.90
2018-12-06T20:22:21.625Z,11.90
2018-12-06T20:27:00.472Z,11.90
2018-12-06T20:31:39.205Z,11.90
2018-12-06T20:36:17.941Z,11.90
2018-12-06T20:40:58.295Z,11.90
2018-12-06T20:45:37.637Z,11.90
2018-12-06T20:50:16.690Z,11.90
2018-12-06T20:54:55.721Z,11.90
2018-12-06T20:59:34.521Z,11.90
2018-12-06T21:04:13.384Z,11.90
2018-12-06T21:08:55.119Z,11.90
2018-12-06T21:13:34.515Z,11.80
2018-12-06T21:18:13.436Z,11.80
2018-12-06T21:22:52.358Z,11.90
2018-12-06T21:27:31.239Z,11.90
2018-12-06T21:32:09.912Z,11.90
2018-12-06T21:36:48.603Z,11.90
2018-12-06T21:41:27.431Z,11.90
2018-12-06T21:46:06.230Z,11.80
2018-12-06T21:50:44.904Z,11.90
2018-12-06T21:55:23.769Z,11.80
2018-12-06T22:00:02.586Z,11.90
2018-12-06T22:04:41.394Z,11.90
2018-12-06T22:09:20.189Z,11.80
2018-12-06T22:13:59.088Z,11.80
2018-12-06T22:18:37.811Z,11.70
2018-12-06T22:23:16.725Z,11.70
2018-12-06T22:27:55.686Z,11.60
2018-12-06T22:32:34.551Z,11.60
2018-12-06T22:37:13.680Z,11.60
2018-12-06T22:41:52.609Z,11.60
2018-12-06T22:46:31.413Z,11.60
2018-12-06T22:51:10.176Z,11.70
2018-12-06T22:55:48.968Z,11.70
2018-12-06T23:00:30.292Z,11.70
2018-12-06T23:05:09.133Z,11.70
2018-12-06T23:09:47.999Z,11.70
2018-12-06T23:14:26.651Z,11.70
2018-12-06T23:19:05.315Z,11.70
2018-12-06T23:23:44.055Z,11.70
2018-12-06T23:28:22.897Z,11.70
2018-12-06T23:33:01.573Z,11.70
2018-12-06T23:37:40.464Z,11.70
2018-12-06T23:42:19.216Z,11.70
2018-12-06T23:46:58.152Z,11.70
2018-12-06T23:51:37.346Z,11.70
2018-12-06T23:56:16.055Z,11.60
